KLGF/LGF METAR and TAF weather

Enter ICAO airport designator
Station Type Date Time Source
KLGF METAR 2022/07/01 00:58 UTC NOAA

KLGF 010058Z AUTO 22009KT 10SM CLR 41/13 A2976 RMK AO2 SLP073 T04090127 TSNO $


Station Type Date Time Source
KLGF Decoded METAR 2022/07/01 00:58 UTC NOAA

Station name not available
Jun 30, 2022 - 08:58 PM EDT / 2022.07.01 0058 UTC
Wind: from the SW (220 degrees) at 10 MPH (9 KT):0
Visibility: 10 mile(s):0
Sky conditions: clear
Temperature: 105.6 F (40.9 C)
Heat index: 104.0 F (40.0 C):1
Dew Point: 54.9 F (12.7 C)
Relative Humidity: 18%
Pressure (altimeter): 29.76 in. Hg (1007 hPa)
ob: KLGF 010058Z AUTO 22009KT 10SM CLR 41/13 A2976 RMK AO2 SLP073 T04090127 TSNO
cycle: 1

Station Type Date Time Source
KLGF TAF UTC NOAA

Error!

Example: see airport list